Time;durP1;ratioP1;P1;durP2;ratioP2;P2;SDS_P1;SDS_P2;PMS_P1;PMS_P2;Temp;Humidity;BMP_temperature;BMP_pressure;BME280_temperature;BME280_humidity;BME280_pressure;Samples;Min_cycle;Max_cycle;Signal;HPM_P1;HPM_P2
2023/01/28 00:01:08;;;;;;;;;;;;;;;2.20;100.00;100943.84;5028046;28;19925;-57
2023/01/28 00:03:34;;;;;;;;;;;;;;;2.16;100.00;100942.19;5047303;28;20297;-57
2023/01/28 00:06:07;;;;;;;;;;;;;;;2.21;100.00;100954.88;5054145;28;19917;-57
2023/01/28 00:08:35;;;;;;;;;;;;;;;2.13;100.00;100944.75;5055295;28;19924;-56
2023/01/28 00:11:00;;;;;;;;;;;;;;;2.12;100.00;100945.59;5044277;28;19921;-57
2023/01/28 00:13:26;;;;;;;;;;;;;;;2.12;100.00;100949.84;5042874;28;19924;-56
2023/01/28 00:15:58;;;;;;;;;;;;;;;2.17;100.00;100946.44;5042864;28;19921;-59
2023/01/28 00:18:24;;;;;;;;;;;;;;;2.15;100.00;100944.75;5042766;28;19921;-57
2023/01/28 00:20:57;;;;;;;;;;;;;;;2.13;100.00;100947.28;5038863;28;19928;-57
2023/01/28 00:23:22;;;;;;;;;;;;;;;2.08;100.00;100946.47;5049116;28;19917;-57
2023/01/28 00:25:48;;;;;;;;;;;;;;;2.03;100.00;100951.56;5054626;28;19925;-58
2023/01/28 00:28:13;;;;;;;;;;;;;;;2.10;100.00;100944.78;5054148;28;19916;-56
2023/01/28 00:30:38;;;;;;;;;;;;;;;2.02;100.00;100939.75;5043076;28;19920;-57
2023/01/28 00:33:03;;;;;;;;;;;;;;;2.01;100.00;100949.88;5054130;28;19921;-56
2023/01/28 00:35:28;;;;;;;;;;;;;;;1.95;100.00;100945.72;5036481;28;20039;-57
2023/01/28 00:37:54;;;;;;;;;;;;;;;1.97;100.00;100953.31;5036195;28;19917;-57
2023/01/28 00:40:19;;;;;;;;;;;;;;;1.93;100.00;100955.00;5044505;28;19916;-57
2023/01/28 00:42:44;;;;;;;;;;;;;;;1.95;100.00;100955.84;5050623;28;19924;-57
2023/01/28 00:45:09;;;;;;;;;;;;;;;1.98;100.00;100949.91;5054852;28;19921;-56
2023/01/28 00:47:35;;;;;;;;;;;;;;;1.99;100.00;100959.22;5035867;28;20261;-57
2023/01/28 00:50:00;;;;;;;;;;;;;;;1.96;100.00;100954.16;5052881;28;19917;-57
2023/01/28 00:52:25;;;;;;;;;;;;;;;2.01;100.00;100954.97;5024171;28;20011;-57
2023/01/28 00:54:50;;;;;;;;;;;;;;;1.90;100.00;100962.66;5054346;28;19951;-57
2023/01/28 00:57:15;;;;;;;;;;;;;;;1.84;100.00;100958.44;5053754;28;19920;-57
2023/01/28 00:59:41;;;;;;;;;;;;;;;1.88;100.00;100960.09;5052837;28;20244;-57
2023/01/28 01:02:13;;;;;;;;;;;;;;;1.88;100.00;100959.28;5034706;28;19921;-59
2023/01/28 01:04:53;;;;;;;;;;;;;;;1.87;100.00;100958.44;5053430;28;19943;-56
2023/01/28 01:07:18;;;;;;;;;;;;;;;1.81;100.00;100953.41;5053187;28;19979;-57
2023/01/28 01:09:43;;;;;;;;;;;;;;;1.80;100.00;100956.78;5054409;28;20368;-57
2023/01/28 01:12:09;;;;;;;;;;;;;;;1.84;100.00;100963.50;5029725;28;19925;-57
2023/01/28 01:14:34;;;;;;;;;;;;;;;1.89;100.00;100959.25;5036203;28;19924;-57
2023/01/28 01:16:59;;;;;;;;;;;;;;;1.85;100.00;100957.59;5053356;28;19956;-57
2023/01/28 01:19:25;;;;;;;;;;;;;;;1.88;100.00;100959.28;5032509;28;19924;-58
2023/01/28 01:21:50;;;;;;;;;;;;;;;1.91;100.00;100957.56;5029212;28;19987;-57
2023/01/28 01:24:15;;;;;;;;;;;;;;;1.90;100.00;100957.56;5052284;28;19956;-57
2023/01/28 01:26:41;;;;;;;;;;;;;;;1.83;100.00;100961.00;5053520;28;19923;-57
2023/01/28 01:29:08;;;;;;;;;;;;;;;1.81;100.00;100960.13;5053269;28;20398;-57
2023/01/28 01:31:33;;;;;;;;;;;;;;;1.82;100.00;100956.75;5042119;28;20016;-57
2023/01/28 01:33:59;;;;;;;;;;;;;;;1.82;100.00;100969.44;5051833;28;20010;-57
2023/01/28 01:36:24;;;;;;;;;;;;;;;1.83;100.00;100963.53;5053439;28;19917;-57
2023/01/28 01:38:54;;;;;;;;;;;;;;;1.79;100.00;100957.63;5053648;28;19917;-56
2023/01/28 01:41:29;;;;;;;;;;;;;;;1.80;100.00;100972.00;5042749;28;20023;-57
2023/01/28 01:43:59;;;;;;;;;;;;;;;1.84;100.00;100971.13;5034519;28;19925;-57
2023/01/28 01:46:37;;;;;;;;;;;;;;;1.82;100.00;100975.34;5053241;28;19924;-56
2023/01/28 01:49:23;;;;;;;;;;;;;;;1.75;100.00;100979.63;5053794;28;19939;-57
2023/01/28 01:51:51;;;;;;;;;;;;;;;1.78;100.00;100979.59;5042179;28;20338;-56
2023/01/28 01:54:17;;;;;;;;;;;;;;;1.70;100.00;100980.47;5053320;28;20010;-57
2023/01/28 01:56:44;;;;;;;;;;;;;;;1.67;100.00;100978.78;5053017;28;20019;-57
2023/01/28 01:59:11;;;;;;;;;;;;;;;1.70;100.00;100980.47;5040289;28;19917;-57
2023/01/28 02:01:36;;;;;;;;;;;;;;;1.70;100.00;100981.34;5042168;28;19927;-57
2023/01/28 02:04:01;;;;;;;;;;;;;;;1.81;100.00;100985.50;5052520;28;19917;-56
2023/01/28 02:06:27;;;;;;;;;;;;;;;1.77;100.00;100983.00;5052766;28;20435;-56
2023/01/28 02:08:54;;;;;;;;;;;;;;;1.80;100.00;100981.28;5052767;28;19928;-56
2023/01/28 02:11:19;;;;;;;;;;;;;;;1.81;100.00;100988.91;5042185;28;19948;-56
2023/01/28 02:16:47;;;;;;;;;;;;;;;1.86;100.00;100986.34;5050910;28;19935;-56
2023/01/28 02:19:13;;;;;;;;;;;;;;;1.78;100.00;100986.38;5052842;28;19920;-56
2023/01/28 02:21:57;;;;;;;;;;;;;;;1.79;100.00;100985.53;5037404;28;19925;-57
2023/01/28 02:24:48;;;;;;;;;;;;;;;1.81;100.00;100988.91;5052060;28;19920;-56
2023/01/28 02:27:17;;;;;;;;;;;;;;;1.82;100.00;100985.50;5052301;28;19928;-57
2023/01/28 02:29:49;;;;;;;;;;;;;;;1.84;100.00;100988.06;5052450;28;19928;-56
2023/01/28 02:32:46;;;;;;;;;;;;;;;1.79;100.00;100993.13;5040131;28;20095;-56
2023/01/28 02:35:24;;;;;;;;;;;;;;;1.72;100.00;100994.84;5023151;28;20397;-56
2023/01/28 02:37:57;;;;;;;;;;;;;;;1.78;100.00;100989.75;5026127;28;20050;-59
2023/01/28 02:40:28;;;;;;;;;;;;;;;1.75;100.00;100994.00;5008137;28;19927;-56
2023/01/28 02:42:53;;;;;;;;;;;;;;;1.70;100.00;100988.09;5015711;28;20007;-56
2023/01/28 02:45:20;;;;;;;;;;;;;;;1.72;100.00;100986.41;5029965;28;20415;-56
2023/01/28 02:47:58;;;;;;;;;;;;;;;1.71;100.00;100992.31;5025632;28;20300;-56
2023/01/28 02:50:27;;;;;;;;;;;;;;;1.73;100.00;100991.47;4993757;28;19926;-57
2023/01/28 02:55:52;;;;;;;;;;;;;;;1.77;100.00;100993.16;5029686;28;19970;-54
2023/01/28 02:58:38;;;;;;;;;;;;;;;1.70;100.00;100998.22;5021278;28;19921;-54
2023/01/28 03:01:17;;;;;;;;;;;;;;;1.70;100.00;101010.91;5009351;28;20288;-54
2023/01/28 03:03:46;;;;;;;;;;;;;;;1.65;100.00;101005.00;5023823;28;19984;-55
2023/01/28 03:06:14;;;;;;;;;;;;;;;1.70;100.00;101003.31;5016064;28;19921;-55
2023/01/28 03:39:06;;;;;;;;;;;;;;;1.70;100.00;101028.66;5051793;28;20014;-54
2023/01/28 03:41:31;;;;;;;;;;;;;;;1.65;100.00;101027.84;5039013;28;19928;-54
2023/01/28 03:43:57;;;;;;;;;;;;;;;1.66;100.00;101022.75;5051061;28;20391;-54
2023/01/28 03:46:22;;;;;;;;;;;;;;;1.71;100.00;101031.22;5050799;28;19982;-54
2023/01/28 03:48:47;;;;;;;;;;;;;;;1.76;100.00;101033.72;5051743;28;20015;-54
2023/01/28 03:51:13;;;;;;;;;;;;;;;1.74;100.00;101032.91;5039327;28;20011;-54
2023/01/28 03:53:39;;;;;;;;;;;;;;;1.66;100.00;101035.44;5051207;28;19921;-55
2023/01/28 03:56:04;;;;;;;;;;;;;;;1.63;100.00;101039.69;5030364;28;19916;-54
2023/01/28 03:58:51;;;;;;;;;;;;;;;1.56;100.00;101043.94;5041425;28;20325;-54
2023/01/28 04:01:16;;;;;;;;;;;;;;;1.56;100.00;101038.84;5023987;28;19933;-54
2023/01/28 04:03:41;;;;;;;;;;;;;;;1.63;100.00;101044.78;5044555;28;19916;-54
2023/01/28 04:06:08;;;;;;;;;;;;;;;1.70;100.00;101039.69;5050454;28;19948;-54
2023/01/28 04:08:33;;;;;;;;;;;;;;;1.68;100.00;101041.38;5051094;28;19924;-54
2023/01/28 04:11:14;;;;;;;;;;;;;;;1.71;100.00;101041.38;5040666;28;19924;-55
2023/01/28 04:13:40;;;;;;;;;;;;;;;1.65;100.00;101043.91;5050344;28;19960;-54
2023/01/28 04:16:05;;;;;;;;;;;;;;;1.64;100.00;101041.38;5027838;28;19928;-54
2023/01/28 04:18:30;;;;;;;;;;;;;;;1.64;100.00;101041.38;5050621;28;19917;-54
2023/01/28 04:20:55;;;;;;;;;;;;;;;1.60;100.00;101046.47;5040747;28;20296;-56
2023/01/28 04:23:20;;;;;;;;;;;;;;;1.63;100.00;101045.59;5050462;28;20015;-54
2023/01/28 04:25:48;;;;;;;;;;;;;;;1.62;100.00;101043.91;5051127;28;19921;-54
2023/01/28 04:28:13;;;;;;;;;;;;;;;1.67;100.00;101042.19;5050056;28;19931;-54
2023/01/28 04:30:38;;;;;;;;;;;;;;;1.65;100.00;101048.13;5040724;28;19921;-54
2023/01/28 04:33:04;;;;;;;;;;;;;;;1.70;100.00;101044.75;5049910;28;19916;-55
2023/01/28 04:35:29;;;;;;;;;;;;;;;1.71;100.00;101043.03;5051039;28;19944;-54
2023/01/28 04:37:54;;;;;;;;;;;;;;;1.64;100.00;101047.31;5050347;28;19940;-54
2023/01/28 04:40:19;;;;;;;;;;;;;;;1.64;100.00;101049.84;5043300;28;19917;-54
2023/01/28 04:42:51;;;;;;;;;;;;;;;1.70;100.00;101051.50;5052463;28;19939;-54
2023/01/28 04:45:16;;;;;;;;;;;;;;;1.69;100.00;101048.13;5055172;28;20296;-54
2023/01/28 04:47:41;;;;;;;;;;;;;;;1.70;100.00;101048.97;5053848;28;19917;-54
2023/01/28 04:50:07;;;;;;;;;;;;;;;1.73;100.00;101048.97;5044191;28;20015;-54
2023/01/28 04:52:32;;;;;;;;;;;;;;;1.75;100.00;101048.09;5052687;28;19923;-54
2023/01/28 04:54:57;;;;;;;;;;;;;;;1.72;100.00;101048.09;5054577;28;19947;-54
2023/01/28 04:57:22;;;;;;;;;;;;;;;1.64;100.00;101043.91;5052507;28;19920;-55
2023/01/28 04:59:48;;;;;;;;;;;;;;;1.71;100.00;101037.97;5024536;28;19928;-54
2023/01/28 05:02:13;;;;;;;;;;;;;;;1.65;100.00;101040.53;5042405;28;20373;-54
2023/01/28 05:04:38;;;;;;;;;;;;;;;1.66;100.00;101045.59;5030601;28;19921;-54
2023/01/28 05:07:03;;;;;;;;;;;;;;;1.65;100.00;101050.66;5051867;28;20360;-54
2023/01/28 05:09:28;;;;;;;;;;;;;;;1.56;100.00;101052.41;5054178;28;19917;-54
2023/01/28 05:11:53;;;;;;;;;;;;;;;1.56;100.00;101059.13;5032989;28;19921;-55
2023/01/28 05:14:19;;;;;;;;;;;;;;;1.51;100.00;101056.59;5027229;28;20328;-54
2023/01/28 05:16:44;;;;;;;;;;;;;;;1.57;100.00;101055.75;5053800;28;20003;-54
2023/01/28 05:19:09;;;;;;;;;;;;;;;1.48;100.00;101059.16;5054308;28;19917;-54
2023/01/28 05:21:34;;;;;;;;;;;;;;;1.43;100.00;101054.09;5039176;28;19921;-55
2023/01/28 05:23:59;;;;;;;;;;;;;;;1.45;100.00;101060.00;5053473;28;20026;-54
2023/01/28 05:26:24;;;;;;;;;;;;;;;1.51;100.00;101065.91;5053463;28;19917;-55
2023/01/28 05:28:50;;;;;;;;;;;;;;;1.52;100.00;101065.91;5053731;28;19994;-54
2023/01/28 05:31:15;;;;;;;;;;;;;;;1.46;100.00;101063.38;5039346;28;19928;-54
2023/01/28 05:33:40;;;;;;;;;;;;;;;1.42;100.00;101067.59;5053251;28;19963;-54
2023/01/28 05:36:05;;;;;;;;;;;;;;;1.39;100.00;101062.56;5053046;28;19917;-53
2023/01/28 05:38:31;;;;;;;;;;;;;;;1.32;100.00;101063.41;5053804;28;19978;-54
2023/01/28 05:40:56;;;;;;;;;;;;;;;1.35;100.00;101058.31;5039331;28;19991;-54
2023/01/28 05:43:21;;;;;;;;;;;;;;;1.33;100.00;101064.22;5052422;28;19924;-54
2023/01/28 05:45:47;;;;;;;;;;;;;;;1.36;100.00;101067.63;5053404;28;20019;-54
2023/01/28 05:48:13;;;;;;;;;;;;;;;1.35;100.00;101068.44;5053174;28;19917;-54
2023/01/28 05:50:38;;;;;;;;;;;;;;;1.36;100.00;101072.69;5038940;28;19925;-54
2023/01/28 05:53:06;;;;;;;;;;;;;;;1.31;100.00;101083.69;5047656;28;20035;-58
2023/01/28 05:55:32;;;;;;;;;;;;;;;1.35;100.00;101085.38;5053468;28;19923;-57
2023/01/28 05:57:57;;;;;;;;;;;;;;;1.28;100.00;101090.44;5046972;28;19933;-57
2023/01/28 06:00:22;;;;;;;;;;;;;;;1.29;100.00;101078.63;5035361;28;19921;-57
2023/01/28 06:02:49;;;;;;;;;;;;;;;1.29;100.00;101073.56;5051933;28;19925;-56
2023/01/28 06:05:14;;;;;;;;;;;;;;;1.28;100.00;101077.75;5053157;28;20010;-57
2023/01/28 06:07:42;;;;;;;;;;;;;;;1.35;100.00;101082.84;5052676;28;20348;-56
2023/01/28 06:10:08;;;;;;;;;;;;;;;1.34;100.00;101079.47;5041188;28;19921;-57
2023/01/28 06:12:33;;;;;;;;;;;;;;;1.43;100.00;101083.69;5051460;28;20020;-57
2023/01/28 06:14:58;;;;;;;;;;;;;;;1.44;100.00;101096.34;5053560;28;19971;-57
2023/01/28 06:17:23;;;;;;;;;;;;;;;1.34;100.00;101097.22;5052235;28;20387;-57
2023/01/28 06:19:49;;;;;;;;;;;;;;;1.37;100.00;101091.28;5053178;28;19924;-57
2023/01/28 06:22:14;;;;;;;;;;;;;;;1.39;100.00;101104.78;5040838;28;20323;-57
2023/01/28 06:24:39;;;;;;;;;;;;;;;1.37;100.00;101096.38;5052900;28;19970;-57
2023/01/28 06:27:04;;;;;;;;;;;;;;;1.39;100.00;101107.31;5045912;28;20276;-59
2023/01/28 06:29:29;;;;;;;;;;;;;;;1.47;100.00;101115.78;5045338;28;20380;-57
2023/01/28 06:31:54;;;;;;;;;;;;;;;1.38;100.00;101111.56;5041118;28;20015;-58
2023/01/28 06:34:20;;;;;;;;;;;;;;;1.41;100.00;101110.72;5052945;28;20380;-63
2023/01/28 06:36:45;;;;;;;;;;;;;;;1.43;100.00;101121.72;5052417;28;19924;-57
2023/01/28 06:39:10;;;;;;;;;;;;;;;1.39;100.00;101115.81;5052837;28;19960;-57
2023/01/28 06:41:35;;;;;;;;;;;;;;;1.40;100.00;101120.03;5041274;28;19928;-60
2023/01/28 06:44:01;;;;;;;;;;;;;;;1.49;100.00;101123.38;5052332;28;19920;-57
2023/01/28 06:46:26;;;;;;;;;;;;;;;1.43;100.00;101129.31;5051849;28;19916;-55
2023/01/28 06:48:51;;;;;;;;;;;;;;;1.45;100.00;101125.06;5031278;28;20339;-54
2023/01/28 06:51:16;;;;;;;;;;;;;;;1.44;100.00;101129.31;5019025;28;19921;-55
2023/01/28 06:53:42;;;;;;;;;;;;;;;1.50;100.00;101128.47;5045826;28;19938;-54
2023/01/28 06:56:07;;;;;;;;;;;;;;;1.48;100.00;101135.22;5051516;28;19925;-54
2023/01/28 06:58:33;;;;;;;;;;;;;;;1.44;100.00;101131.03;5041704;28;19977;-55
2023/01/28 07:00:58;;;;;;;;;;;;;;;1.43;100.00;101142.00;5017970;28;19936;-55
2023/01/28 07:03:23;;;;;;;;;;;;;;;1.29;100.00;101132.69;5041591;28;19920;-54
2023/01/28 07:05:48;;;;;;;;;;;;;;;1.24;100.00;101139.47;5051882;28;20376;-54
2023/01/28 07:08:13;;;;;;;;;;;;;;;1.19;100.00;101145.34;5051831;28;19921;-54
2023/01/28 07:10:39;;;;;;;;;;;;;;;1.27;100.00;101136.06;5041075;28;20372;-54
2023/01/28 07:13:04;;;;;;;;;;;;;;;1.24;100.00;101144.53;5050883;28;19917;-54
2023/01/28 07:15:29;;;;;;;;;;;;;;;1.28;100.00;101143.66;5051953;28;20051;-54
2023/01/28 07:17:54;;;;;;;;;;;;;;;1.27;100.00;101154.66;5051534;28;20050;-54
2023/01/28 07:20:19;;;;;;;;;;;;;;;1.16;100.00;101146.19;5042017;28;19986;-57
2023/01/28 07:22:45;;;;;;;;;;;;;;;1.17;100.00;101159.72;5033465;28;19917;-57
2023/01/28 07:25:10;;;;;;;;;;;;;;;1.19;100.00;101158.88;5050569;28;20037;-57
2023/01/28 07:27:36;;;;;;;;;;;;;;;1.15;100.00;101157.16;5051404;28;19916;-57
2023/01/28 07:30:01;;;;;;;;;;;;;;;1.18;100.00;101153.78;5051836;28;19928;-56
2023/01/28 07:32:26;;;;;;;;;;;;;;;1.22;100.00;101158.88;5040891;28;19927;-56
2023/01/28 07:34:51;;;;;;;;;;;;;;;1.24;100.00;101158.88;5051413;28;19925;-54
2023/01/28 07:37:17;;;;;;;;;;;;;;;1.24;100.00;101162.28;5051399;28;19970;-54
2023/01/28 07:39:42;;;;;;;;;;;;;;;1.16;100.00;101163.09;5051710;28;19967;-54
2023/01/28 07:42:07;;;;;;;;;;;;;;;1.20;100.00;101163.09;5040199;28;20111;-54
2023/01/28 07:44:34;;;;;;;;;;;;;;;1.21;100.00;101169.03;5051514;28;19921;-54
2023/01/28 07:46:59;;;;;;;;;;;;;;;1.23;100.00;101175.78;5051468;28;19970;-54
2023/01/28 07:49:24;;;;;;;;;;;;;;;1.20;100.00;101170.69;5051529;28;19920;-55
2023/01/28 07:51:50;;;;;;;;;;;;;;;1.17;100.00;101175.78;5039550;28;19928;-57
2023/01/28 07:54:15;;;;;;;;;;;;;;;1.18;100.00;101172.41;5051375;28;19916;-54
2023/01/28 07:56:40;;;;;;;;;;;;;;;1.25;100.00;101173.25;5051118;28;20375;-54
2023/01/28 07:59:06;;;;;;;;;;;;;;;1.29;100.00;101172.41;5038099;28;20012;-59
2023/01/28 08:01:31;;;;;;;;;;;;;;;1.33;100.00;101181.72;5029724;28;19979;-55
2023/01/28 08:03:56;;;;;;;;;;;;;;;1.26;100.00;101185.91;5049739;28;19999;-55
2023/01/28 08:06:21;;;;;;;;;;;;;;;1.21;100.00;101182.53;5032841;28;20008;-55
2023/01/28 08:08:47;;;;;;;;;;;;;;;1.25;100.00;101189.31;5036912;28;19924;-56
2023/01/28 08:11:13;;;;;;;;;;;;;;;1.24;100.00;101185.09;5021745;28;20389;-55
2023/01/28 08:13:38;;;;;;;;;;;;;;;1.24;100.00;101180.00;5043952;28;20007;-55
2023/01/28 08:16:03;;;;;;;;;;;;;;;1.22;100.00;101181.69;5042412;28;19968;-55
2023/01/28 08:18:28;;;;;;;;;;;;;;;1.29;100.00;101185.94;5053262;28;19939;-56
2023/01/28 08:20:54;;;;;;;;;;;;;;;1.37;100.00;101187.63;5037940;28;19925;-55
2023/01/28 08:23:19;;;;;;;;;;;;;;;1.40;100.00;101183.41;5036711;28;20298;-56
2023/01/28 08:25:45;;;;;;;;;;;;;;;1.33;100.00;101188.44;5055520;28;20015;-55
2023/01/28 08:28:11;;;;;;;;;;;;;;;1.31;100.00;101191.00;5054353;28;19921;-56
2023/01/28 08:30:37;;;;;;;;;;;;;;;1.32;100.00;101189.31;5023700;28;19933;-55
2023/01/28 08:33:03;;;;;;;;;;;;;;;1.37;100.00;101191.00;5042134;28;19964;-55
2023/01/28 08:35:28;;;;;;;;;;;;;;;1.37;100.00;101188.47;5054829;28;19960;-55
2023/01/28 08:37:54;;;;;;;;;;;;;;;1.37;100.00;101193.53;5054204;28;19962;-55
2023/01/28 08:40:19;;;;;;;;;;;;;;;1.44;100.00;101184.25;5026632;28;19924;-55
2023/01/28 08:42:51;;;;;;;;;;;;;;;1.39;100.00;101194.41;5052097;28;20016;-55
2023/01/28 08:45:17;;;;;;;;;;;;;;;1.48;100.00;101196.09;5044415;28;19942;-55
2023/01/28 08:47:46;;;;;;;;;;;;;;;1.42;100.00;101199.44;5036368;28;19917;-56
2023/01/28 08:50:12;;;;;;;;;;;;;;;1.50;100.00;101196.09;5026287;28;19956;-55
2023/01/28 08:52:37;;;;;;;;;;;;;;;1.49;100.00;101195.25;5051958;28;19952;-55
2023/01/28 08:55:02;;;;;;;;;;;;;;;1.50;100.00;101203.69;5054691;28;20011;-55
2023/01/28 08:57:27;;;;;;;;;;;;;;;1.43;100.00;101205.38;5052131;28;20336;-55
2023/01/28 08:59:52;;;;;;;;;;;;;;;1.51;100.00;101208.75;5042901;28;19938;-55
2023/01/28 09:02:18;;;;;;;;;;;;;;;1.55;100.00;101215.53;5042903;28;19924;-55
2023/01/28 09:04:43;;;;;;;;;;;;;;;1.55;100.00;101215.53;5054489;28;19923;-55
2023/01/28 09:07:08;;;;;;;;;;;;;;;1.56;100.00;101214.69;5053436;28;19917;-55
2023/01/28 09:09:33;;;;;;;;;;;;;;;1.45;100.00;101217.22;5054428;28;19972;-55
2023/01/28 09:11:58;;;;;;;;;;;;;;;1.45;100.00;101222.28;5038250;28;19921;-55
2023/01/28 09:14:23;;;;;;;;;;;;;;;1.37;100.00;101218.06;5053216;28;20378;-55
2023/01/28 09:16:49;;;;;;;;;;;;;;;1.35;100.00;101224.81;5053619;28;20015;-56
2023/01/28 09:19:14;;;;;;;;;;;;;;;1.42;100.00;101224.81;5054461;28;20250;-55
2023/01/28 09:21:39;;;;;;;;;;;;;;;1.45;100.00;101227.38;5030617;28;19964;-56
2023/01/28 09:24:04;;;;;;;;;;;;;;;1.40;100.00;101228.19;5041091;28;20265;-55
2023/01/28 09:26:33;;;;;;;;;;;;;;;1.47;100.00;101229.06;5052408;28;19928;-55
2023/01/28 09:28:58;;;;;;;;;;;;;;;1.53;100.00;101226.53;5041834;28;20437;-55
2023/01/28 09:31:23;;;;;;;;;;;;;;;1.43;100.00;101226.50;5041927;28;19921;-56
2023/01/28 09:33:55;;;;;;;;;;;;;;;1.41;100.00;101224.81;5053529;28;19952;-55
2023/01/28 09:36:20;;;;;;;;;;;;;;;1.39;100.00;101229.88;5053386;28;19963;-55
2023/01/28 09:38:45;;;;;;;;;;;;;;;1.49;100.00;101227.34;5053790;28;20306;-55
2023/01/28 09:41:22;;;;;;;;;;;;;;;1.65;100.00;101229.09;5041951;28;20003;-55
2023/01/28 09:44:06;;;;;;;;;;;;;;;1.78;100.00;101224.84;5053618;28;19963;-55
2023/01/28 09:46:32;;;;;;;;;;;;;;;1.72;100.00;101228.22;5053182;28;19923;-55
2023/01/28 09:49:01;;;;;;;;;;;;;;;1.63;100.00;101227.38;5041906;28;19925;-55
2023/01/28 09:51:40;;;;;;;;;;;;;;;1.67;100.00;101234.16;5020967;28;19975;-55
2023/01/28 09:54:20;;;;;;;;;;;;;;;1.70;100.00;101241.75;5038150;28;20265;-55
2023/01/28 09:56:47;;;;;;;;;;;;;;;1.77;100.00;101241.78;5050529;28;19921;-56
2023/01/28 09:59:19;;;;;;;;;;;;;;;1.77;100.00;101230.75;5042763;28;19971;-57
2023/01/28 10:02:01;;;;;;;;;;;;;;;1.77;100.00;101241.78;5021795;28;20293;-56
2023/01/28 10:04:45;;;;;;;;;;;;;;;1.83;100.00;101251.06;5038466;28;19963;-57
2023/01/28 10:07:17;;;;;;;;;;;;;;;1.83;100.00;101250.22;5037483;28;19921;-56
2023/01/28 10:09:50;;;;;;;;;;;;;;;2.00;100.00;101251.06;5044001;28;19921;-57
2023/01/28 10:12:27;;;;;;;;;;;;;;;2.04;100.00;101234.97;5022960;28;20462;-57
2023/01/28 10:15:11;;;;;;;;;;;;;;;2.10;100.00;101234.97;5042368;28;19928;-57
2023/01/28 10:17:42;;;;;;;;;;;;;;;2.22;100.00;101239.19;5045984;28;20004;-57
2023/01/28 10:20:10;;;;;;;;;;;;;;;2.04;100.00;101246.84;5029962;28;19931;-57
2023/01/28 10:22:43;;;;;;;;;;;;;;;1.94;100.00;101251.06;5033154;28;20331;-56
2023/01/28 10:25:29;;;;;;;;;;;;;;;1.87;100.00;101247.69;5036623;28;20007;-57
2023/01/28 10:27:54;;;;;;;;;;;;;;;1.83;100.00;101253.59;5048171;28;20214;-56
2023/01/28 10:30:19;;;;;;;;;;;;;;;1.80;100.00;101262.88;5025043;28;20023;-57
2023/01/28 10:32:49;;;;;;;;;;;;;;;2.00;100.00;101262.88;5043210;28;20011;-58
2023/01/28 10:35:15;;;;;;;;;;;;;;;1.93;100.00;101262.06;5037138;28;19979;-57
2023/01/28 10:37:40;;;;;;;;;;;;;;;1.87;100.00;101265.44;5034085;28;19952;-57
2023/01/28 10:40:06;;;;;;;;;;;;;;;1.88;100.00;101268.81;5024302;28;20296;-57
2023/01/28 10:42:33;;;;;;;;;;;;;;;1.87;100.00;101260.38;5029186;28;19964;-56
2023/01/28 10:45:06;;;;;;;;;;;;;;;1.81;100.00;101252.75;5039595;28;19996;-56
2023/01/28 10:47:36;;;;;;;;;;;;;;;2.03;100.00;101257.81;5043255;28;19924;-57
2023/01/28 10:50:03;;;;;;;;;;;;;;;2.17;100.00;101257.81;5029407;28;19928;-56
2023/01/28 10:52:29;;;;;;;;;;;;;;;2.10;100.00;101246.81;5004140;28;19967;-57
2023/01/28 10:55:01;;;;;;;;;;;;;;;2.05;100.00;101256.97;5035466;28;20373;-56
2023/01/28 10:57:26;;;;;;;;;;;;;;;2.14;100.00;101255.28;5027194;28;19999;-56
2023/01/28 10:59:52;;;;;;;;;;;;;;;2.06;100.00;101262.88;5051233;28;19994;-57
2023/01/28 11:02:30;;;;;;;;;;;;;;;1.97;100.00;101266.28;5039886;28;19928;-57
2023/01/28 11:05:04;;;;;;;;;;;;;;;1.78;100.00;101265.44;5052424;28;20419;-56
2023/01/28 11:07:29;;;;;;;;;;;;;;;1.78;100.00;101261.19;5030315;28;19928;-57
2023/01/28 11:09:54;;;;;;;;;;;;;;;1.82;100.00;101258.66;5042876;28;19916;-57
2023/01/28 11:12:27;;;;;;;;;;;;;;;1.77;100.00;101262.06;5039383;28;19927;-57
2023/01/28 11:14:53;;;;;;;;;;;;;;;1.82;100.00;101264.59;5052144;28;19970;-56
2023/01/28 11:17:21;;;;;;;;;;;;;;;1.80;100.00;101261.22;5046610;28;20021;-56
2023/01/28 11:19:47;;;;;;;;;;;;;;;1.78;100.00;101252.75;5014803;28;20337;-58
2023/01/28 11:22:20;;;;;;;;;;;;;;;1.91;100.00;101258.66;5025025;28;19963;-57
2023/01/28 11:24:45;;;;;;;;;;;;;;;1.80;100.00;101255.28;5051836;28;19975;-58
2023/01/28 11:27:16;;;;;;;;;;;;;;;1.93;100.00;101262.06;5029516;28;19922;-56
2023/01/28 11:29:41;;;;;;;;;;;;;;;1.88;100.00;101267.13;5028442;28;19991;-56
2023/01/28 11:32:26;;;;;;;;;;;;;;;1.85;100.00;101263.72;5036020;28;20380;-57
2023/01/28 11:34:53;;;;;;;;;;;;;;;1.76;100.00;101265.44;5026584;28;19924;-57
2023/01/28 11:37:20;;;;;;;;;;;;;;;1.73;100.00;101264.59;5028253;28;19931;-56
2023/01/28 11:39:45;;;;;;;;;;;;;;;1.76;100.00;101267.13;5028758;28;19967;-57
2023/01/28 11:42:14;;;;;;;;;;;;;;;1.66;100.00;101261.19;5016863;28;20424;-57
2023/01/28 11:44:40;;;;;;;;;;;;;;;1.67;100.00;101251.91;5029089;28;20265;-56
2023/01/28 11:47:17;;;;;;;;;;;;;;;1.61;100.00;101255.25;5024234;28;19928;-57
2023/01/28 11:49:52;;;;;;;;;;;;;;;1.55;100.00;101255.25;5027686;28;19917;-56
2023/01/28 11:52:37;;;;;;;;;;;;;;;1.55;100.00;101256.13;4995655;28;19934;-56
2023/01/28 11:55:20;;;;;;;;;;;;;;;1.61;100.00;101245.97;5018935;28;19925;-56
2023/01/28 11:57:54;;;;;;;;;;;;;;;1.64;100.00;101239.19;5023433;28;20249;-56
2023/01/28 12:00:38;;;;;;;;;;;;;;;1.41;100.00;101243.41;5000155;28;20287;-56
2023/01/28 12:03:23;;;;;;;;;;;;;;;1.54;100.00;101244.28;5028676;28;19963;-57
2023/01/28 12:06:18;;;;;;;;;;;;;;;1.53;100.00;101239.22;5039395;28;19925;-59
2023/01/28 12:08:56;;;;;;;;;;;;;;;1.53;100.00;101242.59;4962626;28;20092;-56
2023/01/28 12:14:36;;;;;;;;;;;;;;;1.50;100.00;101240.06;5051034;28;19928;-57
2023/01/28 12:17:19;;;;;;;;;;;;;;;1.58;100.00;101237.53;5021952;28;20404;-56
2023/01/28 12:20:04;;;;;;;;;;;;;;;1.60;100.00;101236.69;5043946;28;20035;-57
2023/01/28 12:22:38;;;;;;;;;;;;;;;1.58;100.00;101242.59;5019884;28;19968;-57
2023/01/28 12:25:24;;;;;;;;;;;;;;;1.49;100.00;101240.91;5033476;28;19928;-57
2023/01/28 12:27:50;;;;;;;;;;;;;;;1.48;100.00;101244.28;5040936;28;19932;-60
2023/01/28 12:30:22;;;;;;;;;;;;;;;1.36;100.00;101245.09;5025590;28;19921;-57
2023/01/28 12:32:47;;;;;;;;;;;;;;;1.33;100.00;101251.84;5032627;28;19925;-56
2023/01/28 12:35:31;;;;;;;;;;;;;;;1.16;100.00;101239.97;5042528;28;19921;-57
2023/01/28 12:38:21;;;;;;;;;;;;;;;1.17;100.00;101234.06;5031895;28;20004;-58
2023/01/28 12:40:52;;;;;;;;;;;;;;;1.12;100.00;101233.22;5023752;28;19932;-57
2023/01/28 12:43:21;;;;;;;;;;;;;;;1.27;100.00;101228.16;5038909;28;20025;-57
2023/01/28 12:45:59;;;;;;;;;;;;;;;1.21;100.00;101237.47;5033829;28;19929;-56
2023/01/28 12:48:43;;;;;;;;;;;;;;;1.21;100.00;101225.63;5040544;28;19940;-57
2023/01/28 12:51:09;;;;;;;;;;;;;;;1.32;100.00;101234.94;5022494;28;19925;-57
2023/01/28 12:53:34;;;;;;;;;;;;;;;1.35;100.00;101230.72;5032626;28;19939;-58
2023/01/28 12:56:16;;;;;;;;;;;;;;;1.38;100.00;101230.72;5034961;28;20012;-57
2023/01/28 12:59:00;;;;;;;;;;;;;;;1.19;100.00;101229.84;5035096;28;19921;-58
2023/01/28 13:01:30;;;;;;;;;;;;;;;1.14;100.00;101231.50;5023990;28;19920;-57
2023/01/28 13:04:02;;;;;;;;;;;;;;;1.25;100.00;101232.41;5039541;28;20407;-56
2023/01/28 13:06:41;;;;;;;;;;;;;;;1.13;100.00;101229.84;5053770;28;19924;-56
2023/01/28 13:09:13;;;;;;;;;;;;;;;0.94;100.00;101237.38;5050609;28;20337;-57
2023/01/28 13:11:39;;;;;;;;;;;;;;;0.99;100.00;101231.47;5043648;28;19925;-58
2023/01/28 13:14:04;;;;;;;;;;;;;;;1.01;100.00;101237.41;5042179;28;19948;-58
2023/01/28 13:16:30;;;;;;;;;;;;;;;0.95;100.00;101235.69;5053960;28;20014;-58
2023/01/28 13:19:04;;;;;;;;;;;;;;;1.02;100.00;101239.94;5051412;28;19935;-61
2023/01/28 13:21:32;;;;;;;;;;;;;;;1.03;100.00;101253.44;5015621;28;19925;-61